createdAt,value
2019-02-14T00:01:19.091Z,45.57
2019-02-14T00:03:46.783Z,48.20
2019-02-14T00:06:14.943Z,47.70
2019-02-14T00:08:43.542Z,46.00
2019-02-14T00:11:11.289Z,46.30
2019-02-14T00:13:39.229Z,46.37
2019-02-14T00:16:07.067Z,48.57
2019-02-14T00:18:34.730Z,42.40
2019-02-14T00:21:02.657Z,41.70
2019-02-14T00:23:30.237Z,40.47
2019-02-14T00:25:58.387Z,40.77
2019-02-14T00:28:25.967Z,38.27
2019-02-14T00:30:54.895Z,32.60
2019-02-14T00:33:23.039Z,27.63
2019-02-14T00:35:50.725Z,24.47
2019-02-14T00:38:18.318Z,23.33
2019-02-14T00:40:45.931Z,22.13
2019-02-14T00:43:13.497Z,20.30
2019-02-14T00:48:30.082Z,20.33
2019-02-14T00:51:01.392Z,19.57
2019-02-14T00:53:29.219Z,19.87
2019-02-14T00:55:56.935Z,20.37
2019-02-14T00:58:24.741Z,21.70
2019-02-14T01:00:52.413Z,24.07
2019-02-14T01:03:20.155Z,24.70
2019-02-14T01:05:47.982Z,23.83
2019-02-14T01:08:15.615Z,24.67
2019-02-14T01:10:43.316Z,22.67
2019-02-14T01:13:11.281Z,20.90
2019-02-14T01:15:39.239Z,18.60
2019-02-14T01:18:06.901Z,18.33
2019-02-14T01:20:34.747Z,16.97
2019-02-14T01:23:02.434Z,18.27
2019-02-14T01:25:30.046Z,19.03
2019-02-14T01:27:57.889Z,19.30
2019-02-14T01:30:25.524Z,19.33
2019-02-14T01:32:53.394Z,21.80
2019-02-14T01:35:21.365Z,21.47
2019-02-14T01:37:49.338Z,22.13
2019-02-14T01:40:17.294Z,23.30
2019-02-14T01:42:45.278Z,22.60
2019-02-14T01:45:12.923Z,24.47
2019-02-14T01:47:40.633Z,23.43
2019-02-14T01:50:08.867Z,23.23
2019-02-14T01:58:05.890Z,24.87
2019-02-14T02:00:34.502Z,26.13
2019-02-14T02:03:02.066Z,26.87
2019-02-14T02:05:30.047Z,26.50
2019-02-14T02:07:57.592Z,29.10
2019-02-14T02:10:25.188Z,27.53
2019-02-14T02:15:48.867Z,30.97
2019-02-14T02:18:16.474Z,32.70
2019-02-14T02:20:44.118Z,30.97
2019-02-14T02:23:11.670Z,29.50
2019-02-14T02:25:39.241Z,30.13
2019-02-14T02:28:06.830Z,31.77
2019-02-14T02:30:34.360Z,32.67
2019-02-14T02:33:02.707Z,31.00
2019-02-14T02:35:30.292Z,30.93
2019-02-14T02:37:58.232Z,32.20
2019-02-14T02:40:26.601Z,34.70
2019-02-14T02:42:54.201Z,37.10
2019-02-14T02:45:23.675Z,37.20
2019-02-14T02:47:51.290Z,36.07
2019-02-14T02:50:18.848Z,35.30
2019-02-14T02:52:46.432Z,34.23
2019-02-14T02:55:13.982Z,35.57
2019-02-14T02:57:41.586Z,31.83
2019-02-14T03:00:10.647Z,32.83
2019-02-14T03:02:38.534Z,30.97
2019-02-14T03:05:06.777Z,36.93
2019-02-14T03:07:34.722Z,37.27
2019-02-14T03:10:02.598Z,40.37
2019-02-14T03:12:30.221Z,42.33
2019-02-14T03:14:58.218Z,38.93
2019-02-14T03:17:25.838Z,43.13
2019-02-14T03:19:53.602Z,46.63
2019-02-14T03:22:21.458Z,49.83
2019-02-14T03:24:49.019Z,48.67
2019-02-14T03:32:29.139Z,49.63
2019-02-14T03:34:56.762Z,46.80
2019-02-14T03:37:24.356Z,42.90
2019-02-14T03:39:51.830Z,39.87
2019-02-14T03:42:19.418Z,39.13
2019-02-14T03:44:46.970Z,39.63
2019-02-14T03:47:14.619Z,40.83
2019-02-14T03:49:42.458Z,39.93
2019-02-14T03:52:09.996Z,36.80
2019-02-14T03:54:37.546Z,39.53
2019-02-14T03:57:05.408Z,38.63
2019-02-14T03:59:32.978Z,42.07
2019-02-14T04:02:00.844Z,38.47
2019-02-14T04:04:28.350Z,39.30
2019-02-14T04:06:56.312Z,37.67
2019-02-14T04:09:23.895Z,35.40
2019-02-14T04:11:51.452Z,32.57
2019-02-14T04:14:19.052Z,32.50
2019-02-14T04:16:46.506Z,29.83
2019-02-14T04:19:14.137Z,30.87
2019-02-14T04:21:42.803Z,30.70
2019-02-14T04:24:10.408Z,31.03
2019-02-14T04:26:38.300Z,29.67
2019-02-14T04:29:05.896Z,30.17
2019-02-14T04:31:33.324Z,32.37
2019-02-14T04:34:00.941Z,32.43
2019-02-14T04:36:35.749Z,34.27
2019-02-14T04:38:58.247Z,32.30
2019-02-14T04:41:25.908Z,32.17
2019-02-14T04:43:53.526Z,32.27
2019-02-14T04:46:40.713Z,31.83
2019-02-14T04:49:08.342Z,32.07
2019-02-14T04:51:36.290Z,33.83
2019-02-14T04:54:03.915Z,33.30
2019-02-14T04:56:31.441Z,32.23
2019-02-14T04:58:59.025Z,33.53
2019-02-14T05:01:26.586Z,36.73
2019-02-14T05:03:55.366Z,37.13
2019-02-14T05:06:23.248Z,41.57
2019-02-14T05:08:52.135Z,44.97
2019-02-14T05:11:20.049Z,45.67
2019-02-14T05:13:47.931Z,47.50
2019-02-14T05:16:19.918Z,45.40
2019-02-14T05:18:47.655Z,44.93
2019-02-14T05:21:15.486Z,43.70
2019-02-14T05:23:43.004Z,47.70
2019-02-14T05:26:10.545Z,44.90
2019-02-14T05:28:38.505Z,44.70
2019-02-14T05:31:06.456Z,44.70
2019-02-14T05:33:34.007Z,45.83
2019-02-14T05:36:01.625Z,44.60
2019-02-14T05:38:29.254Z,43.83
2019-02-14T05:40:56.873Z,44.43
2019-02-14T05:43:24.777Z,43.70
2019-02-14T05:45:52.367Z,41.70
2019-02-14T05:48:19.933Z,36.83
2019-02-14T05:50:47.804Z,40.63
2019-02-14T05:53:15.397Z,33.77
2019-02-14T05:55:43.909Z,40.40
2019-02-14T05:58:11.502Z,43.10
2019-02-14T06:00:39.255Z,46.47
2019-02-14T06:03:07.216Z,46.17
2019-02-14T06:05:37.651Z,44.17
2019-02-14T06:08:05.301Z,44.27
2019-02-14T06:10:32.851Z,50.87
2019-02-14T06:13:00.921Z,42.83
2019-02-14T06:18:14.355Z,37.53
2019-02-14T06:20:42.252Z,39.10
2019-02-14T06:23:09.749Z,43.53
2019-02-14T06:25:37.307Z,43.97
2019-02-14T06:28:04.910Z,45.77
2019-02-14T06:30:32.465Z,44.40
2019-02-14T06:33:03.995Z,43.47
2019-02-14T06:35:31.959Z,41.47
2019-02-14T06:37:59.521Z,46.47
2019-02-14T06:40:27.487Z,44.43
2019-02-14T06:42:55.335Z,42.40
2019-02-14T06:45:23.165Z,43.57
2019-02-14T06:47:50.887Z,45.43
2019-02-14T06:50:18.795Z,48.77
2019-02-14T06:52:46.513Z,50.17
2019-02-14T06:55:14.190Z,53.07
2019-02-14T06:57:43.007Z,57.00
2019-02-14T07:00:11.694Z,55.73
2019-02-14T07:02:39.338Z,61.80
2019-02-14T07:05:07.219Z,66.20
2019-02-14T07:07:34.839Z,74.47
2019-02-14T07:10:03.263Z,84.67
2019-02-14T07:12:31.117Z,94.27
2019-02-14T07:14:59.133Z,84.43
2019-02-14T07:17:26.868Z,72.50
2019-02-14T07:19:55.032Z,76.80
2019-02-14T07:22:22.773Z,73.73
2019-02-14T07:24:50.661Z,75.27
2019-02-14T07:27:18.533Z,74.47
2019-02-14T07:29:46.319Z,75.27
2019-02-14T07:32:14.657Z,76.10
2019-02-14T07:34:42.864Z,71.47
2019-02-14T07:37:11.141Z,70.93
2019-02-14T07:39:38.707Z,75.10
2019-02-14T07:42:06.304Z,77.07
2019-02-14T07:44:33.826Z,79.80
2019-02-14T07:47:01.310Z,82.37
2019-02-14T07:49:32.234Z,85.77
2019-02-14T07:52:08.972Z,87.00
2019-02-14T07:54:37.160Z,81.83
2019-02-14T07:57:04.767Z,86.13
2019-02-14T07:59:32.795Z,85.33
2019-02-14T08:02:00.409Z,89.57
2019-02-14T08:04:28.314Z,93.47
2019-02-14T08:06:55.925Z,87.73
2019-02-14T08:09:23.802Z,94.30
2019-02-14T08:11:51.415Z,96.27
2019-02-14T08:14:18.886Z,94.87
2019-02-14T08:16:46.475Z,90.50
2019-02-14T08:19:14.054Z,84.93
2019-02-14T08:21:41.613Z,85.33
2019-02-14T08:24:09.183Z,85.57
2019-02-14T08:26:36.779Z,78.70
2019-02-14T08:29:04.409Z,62.67
2019-02-14T08:31:31.996Z,45.80
2019-02-14T08:33:59.570Z,36.17
2019-02-14T08:36:27.148Z,31.40
2019-02-14T08:38:54.613Z,26.00
2019-02-14T08:41:22.172Z,23.53
2019-02-14T08:43:49.786Z,21.70
2019-02-14T08:46:18.700Z,18.13
2019-02-14T08:48:46.792Z,16.60
2019-02-14T08:51:14.679Z,17.03
2019-02-14T08:53:42.152Z,17.70
2019-02-14T08:56:09.727Z,17.27
2019-02-14T08:58:37.256Z,16.40
2019-02-14T09:01:05.248Z,17.73
2019-02-14T09:06:24.346Z,16.60
2019-02-14T09:08:52.063Z,17.07
2019-02-14T09:11:19.740Z,18.13
2019-02-14T09:13:47.658Z,17.27
2019-02-14T09:16:15.312Z,17.50
2019-02-14T09:18:43.184Z,16.97
2019-02-14T09:21:10.983Z,17.33
2019-02-14T09:23:39.000Z,15.60
2019-02-14T09:26:06.734Z,15.80
2019-02-14T09:28:34.602Z,16.27
2019-02-14T09:31:02.649Z,15.23
2019-02-14T09:33:30.574Z,17.43
2019-02-14T09:35:58.590Z,16.00
2019-02-14T09:38:26.300Z,16.03
2019-02-14T09:40:54.041Z,13.80
2019-02-14T09:43:29.668Z,16.20
2019-02-14T09:45:51.474Z,13.63
2019-02-14T09:48:19.510Z,15.10
2019-02-14T09:50:47.166Z,15.27
2019-02-14T09:53:14.834Z,15.50
2019-02-14T09:55:43.106Z,14.30
2019-02-14T09:58:10.790Z,13.67
2019-02-14T10:00:38.589Z,13.23
2019-02-14T10:03:06.891Z,12.97
2019-02-14T10:05:34.534Z,13.87
2019-02-14T10:08:02.140Z,14.33
2019-02-14T10:10:29.732Z,14.23
2019-02-14T10:12:57.378Z,14.97
2019-02-14T10:15:25.437Z,15.23
2019-02-14T10:17:52.964Z,15.60
2019-02-14T10:20:21.789Z,14.20
2019-02-14T10:25:49.825Z,15.27
2019-02-14T10:28:21.556Z,13.60
2019-02-14T10:30:49.630Z,12.60
2019-02-14T10:33:18.040Z,14.00
2019-02-14T10:35:46.070Z,13.30
2019-02-14T10:38:21.881Z,12.77
2019-02-14T10:40:43.879Z,13.07
2019-02-14T10:43:12.175Z,13.10
2019-02-14T10:45:40.158Z,13.90
2019-02-14T10:48:08.660Z,13.63
2019-02-14T10:50:36.609Z,12.43
2019-02-14T10:53:04.551Z,12.17
2019-02-14T10:55:32.834Z,12.77
2019-02-14T10:58:00.792Z,12.20
2019-02-14T11:00:30.128Z,11.93
2019-02-14T11:02:58.165Z,11.80
2019-02-14T11:05:26.237Z,10.73
2019-02-14T11:07:55.358Z,11.23
2019-02-14T11:10:23.660Z,11.77
2019-02-14T11:12:51.662Z,10.60
2019-02-14T11:15:20.714Z,11.23
2019-02-14T11:17:49.279Z,11.67
2019-02-14T11:20:17.943Z,12.13
2019-02-14T11:22:46.281Z,11.53
2019-02-14T11:25:17.844Z,12.00
2019-02-14T11:27:46.130Z,11.63
2019-02-14T11:30:14.076Z,11.03
2019-02-14T11:32:42.293Z,12.40
2019-02-14T11:35:11.363Z,11.63
2019-02-14T11:37:39.546Z,11.83
2019-02-14T11:40:08.074Z,11.47
2019-02-14T11:42:36.335Z,10.93
2019-02-14T11:45:04.708Z,12.27
2019-02-14T11:47:32.572Z,11.30
2019-02-14T11:50:00.489Z,11.50
2019-02-14T11:52:29.117Z,11.83
2019-02-14T11:54:57.318Z,11.53
2019-02-14T11:57:25.255Z,11.30
2019-02-14T11:59:53.114Z,11.20
2019-02-14T12:02:20.994Z,11.70
2019-02-14T12:04:50.049Z,11.50
2019-02-14T12:07:18.433Z,12.23
2019-02-14T12:09:46.639Z,11.70
2019-02-14T12:12:14.555Z,11.83
2019-02-14T12:14:43.082Z,11.60
2019-02-14T12:17:11.273Z,12.30
2019-02-14T12:19:39.197Z,12.10
2019-02-14T12:22:07.473Z,11.20
2019-02-14T12:24:35.403Z,10.30
2019-02-14T12:27:03.307Z,11.23
2019-02-14T12:29:31.160Z,11.67
2019-02-14T12:31:59.097Z,12.10
2019-02-14T12:34:26.949Z,12.10
2019-02-14T12:36:54.833Z,14.17
2019-02-14T12:39:22.699Z,13.43
2019-02-14T12:41:53.136Z,14.43
2019-02-14T12:44:21.849Z,14.47
2019-02-14T12:46:50.093Z,14.30
2019-02-14T12:49:18.095Z,14.20
2019-02-14T12:51:46.271Z,15.37
2019-02-14T12:54:14.218Z,14.27
2019-02-14T13:02:13.635Z,14.93
2019-02-14T13:04:41.237Z,14.60
2019-02-14T13:07:08.767Z,13.77
2019-02-14T13:09:36.698Z,13.20
2019-02-14T13:12:05.583Z,13.20
2019-02-14T13:14:33.411Z,14.03
2019-02-14T13:17:00.971Z,13.97
2019-02-14T13:19:29.963Z,13.90
2019-02-14T13:21:57.541Z,13.53
2019-02-14T13:24:25.126Z,14.23
2019-02-14T13:26:55.346Z,12.37
2019-02-14T13:29:23.158Z,11.60
2019-02-14T13:31:50.749Z,11.53
2019-02-14T13:34:18.368Z,10.57
2019-02-14T13:36:45.905Z,10.93
2019-02-14T13:39:13.464Z,9.80
2019-02-14T13:41:41.025Z,10.87
2019-02-14T13:44:08.557Z,11.53
2019-02-14T13:46:36.223Z,13.40
2019-02-14T13:49:04.484Z,10.20
2019-02-14T13:51:32.029Z,10.77
2019-02-14T13:53:59.581Z,11.50
2019-02-14T13:56:28.333Z,10.30
2019-02-14T13:58:56.297Z,11.43
2019-02-14T14:01:23.863Z,14.00
2019-02-14T14:03:51.451Z,9.20
2019-02-14T14:06:19.113Z,5.10
2019-02-14T14:08:46.684Z,5.90
2019-02-14T14:11:14.668Z,5.20
2019-02-14T14:13:42.198Z,4.67
2019-02-14T14:21:57.206Z,5.03
2019-02-14T14:24:24.798Z,5.43
2019-02-14T14:26:52.760Z,5.07
2019-02-14T14:29:20.254Z,5.00
2019-02-14T14:31:47.762Z,4.93
2019-02-14T14:34:15.647Z,5.70
2019-02-14T14:36:43.402Z,5.97
2019-02-14T14:41:49.175Z,7.30
2019-02-14T14:44:42.336Z,5.87
2019-02-14T14:47:13.833Z,7.17
2019-02-14T14:49:41.758Z,7.87
2019-02-14T14:52:09.716Z,6.93
2019-02-14T14:54:37.306Z,6.63
2019-02-14T14:57:04.925Z,6.37
2019-02-14T14:59:32.418Z,7.83
2019-02-14T15:01:59.974Z,7.67
2019-02-14T15:04:29.137Z,7.03
2019-02-14T15:06:56.634Z,6.57
2019-02-14T15:09:24.173Z,7.00
2019-02-14T15:11:51.946Z,6.77
2019-02-14T15:14:19.799Z,6.10
2019-02-14T15:16:47.347Z,8.00
2019-02-14T15:19:14.928Z,7.10
2019-02-14T15:21:42.472Z,5.97
2019-02-14T15:24:09.996Z,6.83
2019-02-14T15:26:37.948Z,8.17
2019-02-14T15:29:05.615Z,8.70
2019-02-14T15:31:33.188Z,8.33
2019-02-14T15:34:01.395Z,8.33
2019-02-14T15:36:30.022Z,8.37
2019-02-14T15:38:57.566Z,7.63
2019-02-14T15:41:25.136Z,9.20
2019-02-14T15:43:52.956Z,8.70
2019-02-14T15:46:20.523Z,9.70
2019-02-14T15:48:48.438Z,9.33
2019-02-14T15:51:17.792Z,11.90
2019-02-14T15:53:46.346Z,9.00
2019-02-14T15:59:04.102Z,10.83
2019-02-14T16:01:31.986Z,12.00
2019-02-14T16:03:59.784Z,11.03
2019-02-14T16:06:28.420Z,11.97
2019-02-14T16:08:57.366Z,12.27
2019-02-14T16:11:24.869Z,11.90
2019-02-14T16:13:54.899Z,10.03
2019-02-14T16:16:24.124Z,10.03
2019-02-14T16:18:52.126Z,9.53
2019-02-14T16:21:20.044Z,8.83
2019-02-14T16:23:47.598Z,8.50
2019-02-14T16:26:17.147Z,6.93
2019-02-14T16:28:44.773Z,8.23
2019-02-14T16:31:12.326Z,7.17
2019-02-14T16:33:39.928Z,7.63
2019-02-14T16:36:07.544Z,6.97
2019-02-14T16:38:37.154Z,6.53
2019-02-14T16:41:05.041Z,6.37
2019-02-14T16:43:32.703Z,7.30
2019-02-14T16:46:00.282Z,6.30
2019-02-14T16:48:27.853Z,5.70
2019-02-14T16:50:55.389Z,6.07
2019-02-14T16:53:24.171Z,5.90
2019-02-14T16:55:51.721Z,5.23
2019-02-14T16:58:19.289Z,5.90
2019-02-14T17:00:46.867Z,6.67
2019-02-14T17:03:14.441Z,6.23
2019-02-14T17:08:41.979Z,5.60
2019-02-14T17:13:49.253Z,6.23
2019-02-14T17:16:16.891Z,5.30
2019-02-14T17:18:44.473Z,5.07
2019-02-14T17:21:13.461Z,4.50
2019-02-14T17:23:40.967Z,5.53
2019-02-14T17:26:08.489Z,6.33
2019-02-14T17:28:35.993Z,6.53
2019-02-14T17:31:03.539Z,8.07
2019-02-14T17:33:31.147Z,7.10
2019-02-14T17:35:58.736Z,7.37
2019-02-14T17:38:26.319Z,8.17
2019-02-14T17:40:54.180Z,8.17
2019-02-14T17:43:21.749Z,8.00
2019-02-14T17:45:50.765Z,6.73
2019-02-14T17:48:19.004Z,6.93
2019-02-14T17:50:46.744Z,7.93
2019-02-14T17:53:14.368Z,7.90
2019-02-14T17:55:42.661Z,8.47
2019-02-14T17:58:10.333Z,7.23
2019-02-14T18:00:39.905Z,6.40
2019-02-14T18:03:08.204Z,6.13
2019-02-14T18:05:36.157Z,6.77
2019-02-14T18:08:03.825Z,7.20
2019-02-14T18:10:31.881Z,6.50
2019-02-14T18:12:59.405Z,7.23
2019-02-14T18:15:26.941Z,7.10
2019-02-14T18:17:54.586Z,6.53
2019-02-14T18:20:22.646Z,7.57
2019-02-14T18:22:50.646Z,7.20
2019-02-14T18:25:18.402Z,8.33
2019-02-14T18:27:47.332Z,7.63
2019-02-14T18:30:15.029Z,9.33
2019-02-14T18:32:42.845Z,8.03
2019-02-14T18:35:11.279Z,8.23
2019-02-14T18:37:39.275Z,9.40
2019-02-14T18:40:07.493Z,9.33
2019-02-14T18:42:35.233Z,8.77
2019-02-14T18:45:03.296Z,8.20
2019-02-14T18:47:39.292Z,8.93
2019-02-14T18:50:00.937Z,8.67
2019-02-14T18:52:29.089Z,9.70
2019-02-14T18:54:57.151Z,9.30
2019-02-14T18:57:24.879Z,8.40
2019-02-14T18:59:53.787Z,9.20
2019-02-14T19:02:22.734Z,9.87
2019-02-14T19:04:50.933Z,9.57
2019-02-14T19:07:18.668Z,8.47
2019-02-14T19:09:46.256Z,8.10
2019-02-14T19:12:14.142Z,8.73
2019-02-14T19:14:41.803Z,7.67
2019-02-14T19:17:09.510Z,9.20
2019-02-14T19:19:37.361Z,8.77
2019-02-14T19:24:43.628Z,8.23
2019-02-14T19:27:11.211Z,9.20
2019-02-14T19:29:38.835Z,9.13
2019-02-14T19:32:06.455Z,9.20
2019-02-14T19:34:34.109Z,10.03
2019-02-14T19:37:02.734Z,10.57
2019-02-14T19:39:31.507Z,10.40
2019-02-14T19:41:59.134Z,8.83
2019-02-14T19:44:26.758Z,8.90
2019-02-14T19:46:54.393Z,10.63
2019-02-14T19:49:21.997Z,9.33
2019-02-14T19:51:49.617Z,9.03
2019-02-14T19:54:17.247Z,8.80
2019-02-14T19:56:44.842Z,6.83
2019-02-14T19:59:12.848Z,8.00
2019-02-14T20:01:40.474Z,7.13
2019-02-14T20:04:08.115Z,8.57
2019-02-14T20:06:35.760Z,8.00
2019-02-14T20:09:04.761Z,8.30
2019-02-14T20:11:36.509Z,8.33
2019-02-14T20:14:01.833Z,8.23
2019-02-14T20:16:29.418Z,7.73
2019-02-14T20:18:58.916Z,8.23
2019-02-14T20:21:26.566Z,6.87
2019-02-14T20:23:54.268Z,7.97
2019-02-14T20:26:21.897Z,7.83
2019-02-14T20:28:49.559Z,7.83
2019-02-14T20:31:17.568Z,8.37
2019-02-14T20:33:45.225Z,7.93
2019-02-14T20:36:21.758Z,9.57
2019-02-14T20:41:33.831Z,9.10
2019-02-14T20:44:01.538Z,8.83
2019-02-14T20:46:29.168Z,8.87
2019-02-14T20:48:56.822Z,9.13
2019-02-14T20:51:24.790Z,8.87
2019-02-14T20:53:52.387Z,9.37
2019-02-14T20:56:20.520Z,10.07
2019-02-14T20:58:48.066Z,10.37
2019-02-14T21:01:15.778Z,9.77
2019-02-14T21:03:43.706Z,10.40
2019-02-14T21:06:11.314Z,9.47
2019-02-14T21:08:38.982Z,10.70
2019-02-14T21:11:06.582Z,11.37
2019-02-14T21:13:34.224Z,11.27
2019-02-14T21:16:01.955Z,11.90
2019-02-14T21:18:29.630Z,11.77
2019-02-14T21:20:57.374Z,11.07
2019-02-14T21:23:25.080Z,11.93
2019-02-14T21:25:54.354Z,11.70
2019-02-14T21:28:22.228Z,9.87
2019-02-14T21:30:49.834Z,11.33
2019-02-14T21:33:17.553Z,11.50
2019-02-14T21:35:45.150Z,11.53
2019-02-14T21:38:12.796Z,11.33
2019-02-14T21:40:40.882Z,12.10
2019-02-14T21:43:08.884Z,11.00
2019-02-14T21:45:36.839Z,10.80
2019-02-14T21:48:04.810Z,11.37
2019-02-14T21:50:32.630Z,11.27
2019-02-14T21:58:41.507Z,9.40
2019-02-14T22:01:10.667Z,9.80
2019-02-14T22:03:38.649Z,9.30
2019-02-14T22:06:06.258Z,11.20
2019-02-14T22:08:33.926Z,8.90
2019-02-14T22:11:01.515Z,10.37
2019-02-14T22:13:29.461Z,10.50
2019-02-14T22:15:57.036Z,11.30
2019-02-14T22:18:24.643Z,12.40
2019-02-14T22:20:52.275Z,12.50
2019-02-14T22:23:19.842Z,12.47
2019-02-14T22:25:47.403Z,15.67
2019-02-14T22:28:14.996Z,13.67
2019-02-14T22:30:42.537Z,12.83
2019-02-14T22:33:10.157Z,13.10
2019-02-14T22:35:38.066Z,14.93
2019-02-14T22:38:06.048Z,16.77
2019-02-14T22:40:34.785Z,17.20
2019-02-14T22:43:02.775Z,17.30
2019-02-14T22:45:30.363Z,17.00
2019-02-14T22:47:57.992Z,17.63
2019-02-14T22:50:25.808Z,18.70
2019-02-14T22:52:53.348Z,17.87
2019-02-14T22:55:20.951Z,19.40
2019-02-14T22:57:48.576Z,19.67
2019-02-14T23:00:31.282Z,18.47
2019-02-14T23:03:02.512Z,17.87
2019-02-14T23:05:30.145Z,18.23
2019-02-14T23:07:58.123Z,17.17
2019-02-14T23:10:26.123Z,18.67
2019-02-14T23:12:55.993Z,17.90
2019-02-14T23:15:24.731Z,18.63
2019-02-14T23:17:52.261Z,18.07
2019-02-14T23:20:19.869Z,18.43
2019-02-14T23:22:47.526Z,19.20
2019-02-14T23:25:15.118Z,17.23
2019-02-14T23:27:42.792Z,16.10
2019-02-14T23:30:10.636Z,15.80
2019-02-14T23:32:38.317Z,17.23
2019-02-14T23:35:06.173Z,16.20
2019-02-14T23:37:34.119Z,15.63
2019-02-14T23:40:02.137Z,15.33
2019-02-14T23:42:29.804Z,16.37
2019-02-14T23:44:57.480Z,14.30
2019-02-14T23:47:25.166Z,15.57
2019-02-14T23:49:53.228Z,15.87
2019-02-14T23:52:20.774Z,14.37
2019-02-14T23:54:48.403Z,14.40
2019-02-14T23:57:15.993Z,16.40
2019-02-14T23:59:43.688Z,17.33
